Time;durP1;ratioP1;P1;durP2;ratioP2;P2;SDS_P1;SDS_P2;PMS_P1;PMS_P2;Temp;Humidity;BMP_temperature;BMP_pressure;BME280_temperature;BME280_humidity;BME280_pressure;Samples;Min_cycle;Max_cycle;Signal;HPM_P1;HPM_P2
2023/04/25 00:03:06;;;;;;;25.60;4.65;;;;;;;5.77;100.00;100770.25;10412273;28;20529;-77
2023/04/25 00:08:06;;;;;;;15.55;3.90;;;;;;;5.80;100.00;100775.25;10369265;28;20049;-78
2023/04/25 00:13:08;;;;;;;20.45;4.30;;;;;;;5.68;100.00;100769.66;10394673;28;20041;-78
2023/04/25 00:18:08;;;;;;;15.98;4.30;;;;;;;5.69;100.00;100782.28;10397572;28;20037;-77
2023/04/25 00:23:10;;;;;;;33.17;7.32;;;;;;;5.59;100.00;100771.03;10396985;28;20029;-77
2023/04/25 00:28:11;;;;;;;21.98;4.22;;;;;;;5.61;100.00;100786.13;10415321;28;20481;-77
2023/04/25 00:44:29;;;;;;;19.40;5.15;;;;;;;4.80;100.00;100675.09;10676321;23;20064;-86
2023/04/25 00:49:47;;;;;;;21.95;5.20;;;;;;;5.51;100.00;100802.19;11670949;22;20118;31
2023/04/25 00:54:48;;;;;;;18.10;5.15;;;;;;;4.66;100.00;100677.09;10338691;23;20126;-87
2023/04/25 00:59:48;;;;;;;22.02;4.85;;;;;;;5.42;100.00;100790.69;10279395;28;20069;-82
2023/04/25 01:04:49;;;;;;;19.27;4.22;;;;;;;4.47;100.00;100667.16;10288169;28;20132;-83
2023/04/25 01:09:51;;;;;;;22.75;3.92;;;;;;;4.94;100.00;100747.59;10289679;28;20030;-83
2023/04/25 01:14:51;;;;;;;19.58;3.60;;;;;;;5.32;100.00;100814.94;10293061;28;20029;-86
2023/04/25 01:19:52;;;;;;;20.27;3.22;;;;;;;4.11;100.00;100612.19;10278192;28;20057;-82
2023/04/25 01:24:52;;;;;;;17.30;3.53;;;;;;;4.29;100.00;100662.41;10291193;28;20041;-81
2023/04/25 01:29:54;;;;;;;13.30;2.55;;;;;;;4.49;100.00;100674.06;10296344;28;20023;-83
2023/04/25 01:34:55;;;;;;;18.27;4.00;;;;;;;5.25;100.00;100795.03;10294299;28;20060;-82
2023/04/25 01:39:55;;;;;;;14.50;2.92;;;;;;;4.43;100.00;100692.09;10294904;28;20516;-87
2023/04/25 01:44:56;;;;;;;23.70;4.43;;;;;;;4.60;100.00;100729.75;10278718;28;20018;-85
2023/04/25 01:49:56;;;;;;;13.18;2.67;;;;;;;4.07;100.00;100624.59;10275457;28;20458;-83
2023/04/25 01:54:57;;;;;;;12.32;2.60;;;;;;;4.28;100.00;100671.63;10307883;28;20514;-83
2023/04/25 01:59:59;;;;;;;15.32;3.00;;;;;;;4.76;100.00;100777.50;10292272;28;20041;-83
2023/04/25 02:05:00;;;;;;;16.60;2.90;;;;;;;4.40;100.00;100721.69;10291410;28;20048;-83
2023/04/25 02:10:00;;;;;;;15.35;2.83;;;;;;;4.65;100.00;100743.56;10296522;28;20031;-83
2023/04/25 02:15:01;;;;;;;9.95;2.20;;;;;;;4.12;100.00;100687.44;10313650;28;20026;-88
2023/04/25 02:20:01;;;;;;;23.48;2.70;;;;;;;3.99;100.00;100662.97;10299725;28;20043;-88
2023/04/25 02:25:04;;;;;;;13.50;2.83;;;;;;;4.27;100.00;100719.88;10299073;28;20180;-87
2023/04/25 02:30:06;;;;;;;13.10;2.60;;;;;;;4.75;100.00;100808.56;10315797;28;20100;-87
2023/04/25 02:35:07;;;;;;;12.45;2.72;;;;;;;4.33;100.00;100746.25;10301144;28;20066;-87
2023/04/25 02:40:08;;;;;;;11.75;2.20;;;;;;;3.90;100.00;100689.63;10313755;28;20042;-88
2023/04/25 02:45:09;;;;;;;15.18;2.65;;;;;;;3.79;100.00;100684.84;10299231;28;20389;-88
2023/04/25 02:50:10;;;;;;;20.00;2.60;;;;;;;4.07;100.00;100751.78;10283653;28;20054;-86
2023/04/25 02:55:12;;;;;;;13.15;2.55;;;;;;;4.01;100.00;100802.50;10267497;28;20500;-86
2023/04/25 03:00:14;;;;;;;19.52;3.78;;;;;;;3.10;100.00;100654.41;10299111;28;20034;-87
2023/04/25 03:05:14;;;;;;;19.05;4.28;;;;;;;3.09;100.00;100662.78;10282991;28;20077;-88
2023/04/25 03:15:31;;;;;;;11.73;2.95;;;;;;;3.32;100.00;100684.09;10847010;23;20131;-83
2023/04/25 03:32:43;;;;;;;9.50;2.60;;;;;;;3.47;100.00;100758.19;11426490;22;20043;-87
2023/04/25 03:37:45;;;;;;;15.38;3.78;;;;;;;4.03;100.00;100855.75;10408111;23;20052;-89
2023/04/25 03:42:45;;;;;;;8.38;1.77;;;;;;;4.21;100.00;100870.59;10412354;28;20119;-88
2023/04/25 03:47:46;;;;;;;10.13;1.40;;;;;;;3.96;100.00;100843.19;10426915;28;20037;-92
2023/04/25 03:52:46;;;;;;;13.52;1.67;;;;;;;4.03;100.00;100880.28;10390894;28;20040;-91
2023/04/25 03:57:47;;;;;;;7.43;1.83;;;;;;;3.81;100.00;100879.66;10390117;28;20037;-91
2023/04/25 04:02:47;;;;;;;9.25;2.90;;;;;;;3.68;100.00;100879.66;10373993;28;20056;-91
2023/04/25 04:07:48;;;;;;;13.52;3.25;;;;;;;3.53;100.00;100887.16;10389580;28;20045;-91
2023/04/25 04:12:48;;;;;;;10.20;2.38;;;;;;;3.44;100.00;100908.31;10390931;28;20040;-90
2023/04/25 04:17:49;;;;;;;13.63;2.65;;;;;;;3.24;100.00;100894.66;10374584;28;20041;-91
2023/04/25 04:22:49;;;;;;;9.88;2.20;;;;;;;3.40;100.00;100932.38;10389783;28;20034;-91
2023/04/25 04:27:54;;;;;;;12.80;2.80;;;;;;;3.36;100.00;100916.66;10406108;28;20041;-92
2023/04/25 04:32:57;;;;;;;10.75;1.98;;;;;;;3.31;100.00;100887.34;10374426;28;20038;-91
2023/04/25 04:37:58;;;;;;;12.77;2.42;;;;;;;3.80;100.00;100929.72;10388696;28;20097;-91
2023/04/25 04:42:58;;;;;;;8.63;1.52;;;;;;;4.06;100.00;100924.50;10357182;28;20591;-91
2023/04/25 04:47:59;;;;;;;8.57;2.33;;;;;;;4.02;100.00;100940.41;10404998;28;20029;-91
2023/04/25 04:52:59;;;;;;;10.85;1.80;;;;;;;3.87;100.00;100931.63;10388761;28;20034;-92
2023/04/25 04:58:00;;;;;;;6.07;1.67;;;;;;;3.80;100.00;100940.63;10388866;28;20029;-91
2023/04/25 05:03:00;;;;;;;9.60;2.00;;;;;;;3.96;100.00;100957.59;10356007;28;20033;-91
2023/04/25 05:08:01;;;;;;;6.97;1.88;;;;;;;4.00;100.00;100964.31;10371439;28;20315;-92
2023/04/25 05:13:02;;;;;;;9.23;1.55;;;;;;;3.97;100.00;100967.44;10390212;28;20060;-89
2023/04/25 05:18:03;;;;;;;14.70;2.17;;;;;;;3.84;100.00;100970.97;10390611;28;20088;-85
2023/04/25 05:23:03;;;;;;;11.57;2.55;;;;;;;3.77;100.00;100970.16;10391146;28;20033;-90
2023/04/25 05:28:05;;;;;;;7.43;1.40;;;;;;;3.93;100.00;100960.75;10374197;28;20026;-91
2023/04/25 05:33:07;;;;;;;10.00;1.60;;;;;;;4.02;100.00;100951.31;10387989;28;20030;-91
2023/04/25 05:38:07;;;;;;;11.65;1.67;;;;;;;4.45;100.00;100991.75;10349648;28;20128;-91
2023/04/25 05:43:09;;;;;;;13.55;2.35;;;;;;;4.55;100.00;101049.44;10393161;28;20041;-90
2023/04/25 05:48:09;;;;;;;9.93;1.77;;;;;;;4.11;100.00;101018.16;10347088;28;20061;-93
2023/04/25 05:53:11;;;;;;;10.10;1.85;;;;;;;3.94;100.00;101008.72;10333573;28;20382;-92
2023/04/25 05:58:11;;;;;;;9.85;2.08;;;;;;;3.35;100.00;100934.03;10346161;28;20048;-92
2023/04/25 06:03:14;;;;;;;9.23;3.03;;;;;;;3.64;100.00;101011.81;10338241;28;20121;-92
2023/04/25 06:08:15;;;;;;;12.57;3.10;;;;;;;3.76;100.00;101015.63;10365580;28;20061;-88
2023/04/25 06:13:15;;;;;;;7.85;1.58;;;;;;;4.03;100.00;101012.91;10369394;28;20052;-91
2023/04/25 06:18:16;;;;;;;12.63;2.22;;;;;;;4.15;100.00;101011.25;10370040;28;20057;-91
2023/04/25 06:23:16;;;;;;;16.15;2.47;;;;;;;4.45;100.00;101017.13;10343763;28;20357;-92
2023/04/25 06:28:17;;;;;;;11.90;1.80;;;;;;;4.88;100.00;101021.28;10342266;28;20026;-91
2023/04/25 06:33:17;;;;;;;9.85;1.88;;;;;;;4.96;100.00;100991.03;10359701;28;20034;-90
2023/04/25 06:38:18;;;;;;;6.03;1.38;;;;;;;5.34;100.00;101033.94;10358760;28;20072;-91
2023/04/25 06:43:18;;;;;;;8.23;1.30;;;;;;;5.38;100.00;101032.47;10327192;28;20053;-91
2023/04/25 06:48:19;;;;;;;10.02;1.55;;;;;;;5.04;100.00;100996.28;10385762;28;20238;-91
2023/04/25 06:53:19;;;;;;;9.93;1.88;;;;;;;5.08;100.00;101044.94;10362510;28;20496;-89
2023/04/25 06:58:20;;;;;;;11.13;3.72;;;;;;;5.27;100.00;101024.94;10348348;28;20067;-89
2023/04/25 07:03:21;;;;;;;8.52;1.13;;;;;;;5.56;100.00;101017.25;10380560;28;20113;-90
2023/04/25 07:08:21;;;;;;;10.93;1.23;;;;;;;5.88;100.00;101014.56;10379183;28;20041;-89
2023/04/25 07:13:22;;;;;;;6.50;1.83;;;;;;;6.26;100.00;101020.84;10349964;28;20041;-92
2023/04/25 07:18:22;;;;;;;5.05;0.93;;;;;;;6.82;100.00;101015.50;10380710;28;20049;-92
2023/04/25 07:23:23;;;;;;;6.82;1.40;;;;;;;6.80;100.00;101009.41;10393764;28;20038;-94
2023/04/25 07:28:23;;;;;;;9.00;1.52;;;;;;;6.33;100.00;101069.19;10403188;28;20029;-91
2023/04/25 07:33:24;;;;;;;11.50;2.15;;;;;;;5.98;100.00;101050.47;10402238;28;20399;-91
2023/04/25 07:38:24;;;;;;;3.17;1.00;;;;;;;6.23;100.00;101051.34;10385955;28;20468;-90
2023/04/25 07:43:25;;;;;;;6.95;1.17;;;;;;;6.36;100.00;101016.78;10401473;28;20041;-90
2023/04/25 07:48:26;;;;;;;4.05;0.70;;;;;;;6.75;100.00;101047.56;10419713;28;20130;-90
2023/04/25 07:53:26;;;;;;;5.07;1.48;;;;;;;6.66;100.00;101056.06;10387750;28;20052;-90
2023/04/25 07:58:27;;;;;;;6.82;1.10;;;;;;;6.37;100.00;101073.16;10397724;28;20048;-93
2023/04/25 08:03:27;;;;;;;2.60;0.70;;;;;;;6.58;100.00;101086.44;10384676;28;20041;-88
2023/04/25 08:08:28;;;;;;;9.52;1.10;;;;;;;7.03;100.00;101094.47;10384899;28;20042;-89
2023/04/25 08:13:28;;;;;;;7.72;1.20;;;;;;;7.98;100.00;101093.16;10399045;28;20559;-90
2023/04/25 08:18:29;;;;;;;6.78;1.08;;;;;;;7.82;100.00;101075.44;10379087;28;20097;-90
2023/04/25 08:23:29;;;;;;;8.73;1.30;;;;;;;7.93;100.00;101071.06;10400384;28;20041;-91
2023/04/25 08:28:30;;;;;;;5.57;1.48;;;;;;;7.83;100.00;101098.19;10383868;28;20033;-90
2023/04/25 08:33:31;;;;;;;6.18;1.35;;;;;;;7.38;100.00;101115.81;10400108;28;20044;-89
2023/04/25 08:38:32;;;;;;;6.22;1.40;;;;;;;7.05;100.00;101136.13;10393973;28;20072;-90
2023/04/25 08:43:33;;;;;;;11.60;1.20;;;;;;;7.36;100.00;101128.03;10390630;28;20119;-91
2023/04/25 08:48:34;;;;;;;10.00;1.60;;;;;;;7.07;100.00;101155.91;10384058;28;20071;-90
2023/04/25 08:53:35;;;;;;;4.47;0.77;;;;;;;6.27;100.00;101144.72;10400872;28;20034;-90
2023/04/25 08:58:36;;;;;;;2.72;0.82;;;;;;;6.19;100.00;101164.13;10363826;28;20057;-89
2023/04/25 09:03:36;;;;;;;6.15;1.10;;;;;;;6.56;100.00;101165.16;10396414;28;20034;-92
2023/04/25 09:08:37;;;;;;;3.45;1.10;;;;;;;6.97;100.00;101161.06;10343993;28;20045;-90
2023/04/25 09:13:38;;;;;;;5.53;0.70;;;;;;;7.05;100.00;101135.31;10365240;28;20033;-92
2023/04/25 09:18:38;;;;;;;5.68;0.70;;;;;;;7.29;100.00;101169.19;10364688;28;20038;-92
2023/04/25 09:23:49;;;;;;;2.88;1.00;;;;;;;7.66;100.00;101180.19;10374267;28;20044;-88
2023/04/25 09:28:50;;;;;;;4.65;0.80;;;;;;;8.01;100.00;101157.66;10355667;28;20077;-90
2023/04/25 09:33:50;;;;;;;3.28;0.77;;;;;;;7.58;100.00;101164.06;10381358;28;20076;-89
2023/04/25 09:38:51;;;;;;;4.68;1.23;;;;;;;7.92;100.00;101178.22;10373750;28;20045;-91
2023/04/25 09:43:51;;;;;;;6.22;0.80;;;;;;;8.20;100.00;101181.22;10366292;28;20188;-89
2023/04/25 09:48:53;;;;;;;6.10;1.00;;;;;;;8.78;100.00;101171.56;10373346;28;20033;-92
2023/04/25 09:53:54;;;;;;;9.18;1.02;;;;;;;8.98;100.00;101149.28;10345838;28;20046;-84
2023/04/25 09:58:54;;;;;;;8.18;1.58;;;;;;;8.61;100.00;101132.16;10387966;28;20050;-96
2023/04/25 10:03:55;;;;;;;7.90;1.42;;;;;;;9.77;100.00;101190.13;10380516;28;20040;-95
2023/04/25 10:08:55;;;;;;;7.00;1.15;;;;;;;9.43;100.00;101181.69;10365512;28;20280;-92
2023/04/25 10:13:56;;;;;;;7.60;1.05;;;;;;;8.71;100.00;101176.34;10373619;28;20066;-93
2023/04/25 10:18:56;;;;;;;11.68;1.30;;;;;;;8.52;100.00;101161.03;10362124;28;20049;-93
2023/04/25 10:23:57;;;;;;;9.15;1.20;;;;;;;9.05;100.00;101182.97;10372976;28;20041;-94
2023/04/25 10:29:01;;;;;;;9.88;2.20;;;;;;;9.36;100.00;101163.63;10387372;28;20038;-93
2023/04/25 10:34:02;;;;;;;8.05;1.50;;;;;;;9.14;100.00;101168.91;10378017;28;20045;-95
2023/04/25 10:39:07;;;;;;;4.38;0.75;;;;;;;9.79;97.79;101187.97;10386108;28;20053;-95
2023/04/25 10:44:08;;;;;;;10.68;1.30;;;;;;;9.70;95.55;101171.03;10392325;28;20148;-95
2023/04/25 10:49:29;;;;;;;4.82;0.80;;;;;;;8.17;100.00;101231.06;10374959;28;20132;-92
2023/04/25 10:54:29;;;;;;;7.03;2.13;;;;;;;7.24;100.00;101273.09;10405800;28;20052;-95
2023/04/25 10:59:30;;;;;;;6.97;1.40;;;;;;;7.00;100.00;101274.75;10397838;28;20048;-94
2023/04/25 11:04:31;;;;;;;1.50;0.40;;;;;;;7.26;100.00;101243.59;10391481;28;20033;-96
2023/04/25 11:09:34;;;;;;;7.07;1.65;;;;;;;7.65;100.00;101236.09;10390037;28;20080;-94
2023/04/25 11:14:35;;;;;;;4.07;1.13;;;;;;;8.31;100.00;101244.59;10380709;28;20025;-92
2023/04/25 11:19:36;;;;;;;5.00;0.90;;;;;;;9.22;100.00;101216.09;10393168;28;20035;-96
2023/04/25 11:24:36;;;;;;;5.53;1.02;;;;;;;10.06;100.00;101214.97;10377825;28;20038;-94
2023/04/25 11:29:37;;;;;;;6.15;0.93;;;;;;;9.12;100.00;101289.16;10421864;28;20065;-94
2023/04/25 11:34:37;;;;;;;6.63;1.15;;;;;;;7.38;100.00;101235.47;10399529;28;20476;-93
2023/04/25 11:39:38;;;;;;;4.93;0.93;;;;;;;7.82;100.00;101270.06;10400304;28;20041;-92
2023/04/25 11:44:40;;;;;;;7.93;1.17;;;;;;;9.08;100.00;101245.66;10402980;28;20050;-85
2023/04/25 11:49:41;;;;;;;3.65;1.00;;;;;;;10.23;100.00;101251.66;10388648;28;20447;-91
2023/04/25 11:54:42;;;;;;;2.38;0.73;;;;;;;10.08;100.00;101249.38;10403784;28;20080;-91
2023/04/25 11:59:43;;;;;;;5.40;0.80;;;;;;;10.12;100.00;101225.00;10403623;28;20033;-91
2023/04/25 12:04:43;;;;;;;6.38;0.90;;;;;;;10.20;97.96;101262.31;10375495;28;20064;-89
2023/04/25 12:09:44;;;;;;;5.43;0.95;;;;;;;9.96;97.33;101247.75;10401997;28;20052;-91
2023/04/25 12:14:47;;;;;;;5.00;0.73;;;;;;;10.18;97.67;101253.47;10383531;28;20056;-84
2023/04/25 12:19:48;;;;;;;6.57;1.95;;;;;;;9.84;100.00;101256.84;10369112;28;20041;-93
2023/04/25 12:24:48;;;;;;;11.52;1.42;;;;;;;9.79;100.00;101291.63;10382002;28;20057;-84
2023/04/25 12:29:56;;;;;;;5.75;1.42;;;;;;;10.54;97.33;101265.22;10369104;28;20034;-92
2023/04/25 12:34:56;;;;;;;4.65;1.20;;;;;;;10.40;95.58;101275.72;10384884;28;20145;-94
2023/04/25 12:39:57;;;;;;;5.70;1.10;;;;;;;10.02;96.02;101277.03;10410314;28;20099;-95
2023/04/25 12:44:57;;;;;;;9.00;1.45;;;;;;;9.54;100.00;101317.44;10413969;28;20038;-93
2023/04/25 12:49:58;;;;;;;4.60;0.98;;;;;;;8.20;100.00;101345.78;10434433;28;20029;-91
2023/04/25 12:54:58;;;;;;;7.45;1.00;;;;;;;7.14;100.00;101259.06;10412259;28;20997;-92
2023/04/25 12:59:59;;;;;;;7.70;0.90;;;;;;;7.59;100.00;101327.41;10380976;28;20413;-93
2023/04/25 13:05:00;;;;;;;11.00;1.30;;;;;;;9.34;100.00;101295.75;10398354;28;20386;-94
2023/04/25 13:10:02;;;;;;;4.88;0.90;;;;;;;11.28;100.00;101293.63;10399521;28;20038;-94
2023/04/25 13:15:03;;;;;;;5.05;0.98;;;;;;;11.03;98.55;101296.75;10382027;28;20044;-96
2023/04/25 13:20:07;;;;;;;3.88;1.27;;;;;;;11.79;95.95;101287.28;10365556;28;20037;-95
2023/04/25 13:25:07;;;;;;;5.80;1.10;;;;;;;10.62;92.33;101287.69;10399817;28;20044;-92
2023/04/25 13:30:08;;;;;;;5.88;0.90;;;;;;;11.81;89.55;101280.44;10411526;28;20033;-91
2023/04/25 13:35:10;;;;;;;3.30;1.00;;;;;;;13.79;92.37;101295.97;10404552;28;20037;-92
2023/04/25 13:40:11;;;;;;;6.93;1.23;;;;;;;13.09;87.80;101295.88;10375326;28;20052;-92
2023/04/25 13:45:12;;;;;;;5.70;0.90;;;;;;;9.88;95.41;101367.19;10413178;28;20084;-91
2023/04/25 13:50:13;;;;;;;4.50;0.63;;;;;;;8.65;100.00;101364.75;10377227;28;20061;-95
2023/04/25 13:55:14;;;;;;;3.97;1.00;;;;;;;8.37;100.00;101389.09;10372030;28;20037;-91
2023/04/25 14:00:15;;;;;;;5.85;0.80;;;;;;;8.97;100.00;101356.34;10365721;28;20041;-92
2023/04/25 14:05:15;;;;;;;5.57;1.30;;;;;;;9.36;100.00;101355.97;10375496;28;20041;-91
2023/04/25 14:10:16;;;;;;;7.57;1.83;;;;;;;8.79;100.00;101370.09;10398002;28;20034;-96
2023/04/25 14:15:17;;;;;;;8.82;1.42;;;;;;;8.45;100.00;101359.50;10364824;28;20033;-94
2023/04/25 14:20:20;;;;;;;5.95;1.45;;;;;;;9.66;99.18;101334.78;10384756;28;20044;-91
2023/04/25 14:25:21;;;;;;;4.05;0.52;;;;;;;11.10;87.44;101302.13;10369733;28;20038;-91
2023/04/25 14:30:21;;;;;;;5.13;1.02;;;;;;;11.69;87.20;101323.81;10383302;28;20037;-91
2023/04/25 14:35:22;;;;;;;4.65;1.00;;;;;;;12.20;82.36;101294.28;10371015;28;20081;-93
2023/04/25 14:40:22;;;;;;;7.05;2.00;;;;;;;11.96;82.92;101328.69;10364258;28;20052;-92
2023/04/25 14:45:23;;;;;;;6.35;1.20;;;;;;;11.75;82.46;101336.59;10377435;28;20301;-91
2023/04/25 14:50:23;;;;;;;6.00;1.23;;;;;;;10.42;87.23;101367.97;10355702;28;20124;-90
2023/04/25 14:55:24;;;;;;;8.85;1.67;;;;;;;9.56;90.81;101364.75;10340471;28;20065;-92
2023/04/25 15:00:26;;;;;;;11.40;2.13;;;;;;;9.69;95.78;101381.06;10356080;28;20045;-92
2023/04/25 15:05:27;;;;;;;8.57;1.58;;;;;;;10.26;94.16;101358.47;10356892;28;20038;-92
2023/04/25 15:10:27;;;;;;;10.90;1.25;;;;;;;10.51;86.60;101365.66;10344921;28;20536;-83
2023/04/25 15:15:28;;;;;;;8.45;1.17;;;;;;;11.85;85.38;101380.91;10366510;28;20038;-91
2023/04/25 15:20:28;;;;;;;6.22;0.90;;;;;;;11.20;84.46;101417.22;10347890;28;20034;-90
2023/04/25 15:25:28;;;;;;;4.07;0.90;;;;;;;9.44;94.71;101438.94;10348530;28;20045;-92
2023/04/25 15:30:29;;;;;;;6.70;0.95;;;;;;;9.26;98.09;101437.09;10349447;28;20038;-90
2023/04/25 15:35:29;;;;;;;10.98;1.45;;;;;;;8.98;100.00;101434.91;10347801;28;20041;-92
2023/04/25 15:40:30;;;;;;;8.05;1.20;;;;;;;9.61;100.00;101424.53;10362605;28;20037;-90
2023/04/25 15:45:31;;;;;;;5.15;0.93;;;;;;;10.84;97.58;101420.06;10385827;28;20046;-91
2023/04/25 15:50:32;;;;;;;7.70;1.90;;;;;;;9.93;96.67;101410.50;10350752;28;20408;-91
2023/04/25 15:55:33;;;;;;;5.07;1.00;;;;;;;9.97;93.35;101348.44;10303605;28;20030;-87
2023/04/25 16:00:35;;;;;;;6.72;1.30;;;;;;;11.27;89.74;101401.38;10344586;28;20065;-92
2023/04/25 16:05:36;;;;;;;3.55;0.85;;;;;;;12.65;86.78;101394.53;10347178;28;20030;-92
2023/04/25 16:10:37;;;;;;;4.03;0.98;;;;;;;11.44;85.58;101402.25;10378528;28;20037;-85
2023/04/25 16:15:38;;;;;;;6.35;0.90;;;;;;;10.84;87.58;101414.56;10332173;28;20316;-91
2023/04/25 16:20:39;;;;;;;7.32;1.05;;;;;;;12.32;84.73;101394.38;10353460;28;20036;-88
2023/04/25 16:25:41;;;;;;;7.53;1.42;;;;;;;13.89;80.54;101370.78;10397398;28;20048;-91
2023/04/25 16:30:42;;;;;;;5.78;1.23;;;;;;;14.12;78.13;101368.72;10400175;28;20033;-89
2023/04/25 16:35:42;;;;;;;8.50;1.75;;;;;;;15.34;76.95;101387.06;10384088;28;20033;-86
2023/04/25 16:40:43;;;;;;;8.80;1.20;;;;;;;15.77;73.58;101371.03;10400920;28;20056;-91
2023/04/25 16:45:43;;;;;;;5.25;1.63;;;;;;;14.80;72.72;101373.56;10393117;28;20038;-85
2023/04/25 16:50:44;;;;;;;5.45;1.08;;;;;;;13.76;73.17;101392.50;10381139;28;20048;-91
2023/04/25 16:55:46;;;;;;;7.15;1.25;;;;;;;11.98;74.67;101406.53;10409006;28;20061;-92
2023/04/25 17:00:46;;;;;;;7.82;1.00;;;;;;;11.67;78.26;101417.00;10387614;28;20494;-87
2023/04/25 17:05:50;;;;;;;6.95;0.77;;;;;;;11.84;81.89;101428.06;10399151;28;20056;-87
2023/04/25 17:10:52;;;;;;;6.88;1.05;;;;;;;11.01;80.00;101394.53;10360206;28;20114;-90
2023/04/25 17:15:53;;;;;;;6.40;0.90;;;;;;;10.01;82.68;101440.44;10367905;28;20056;-88
2023/04/25 17:20:54;;;;;;;5.43;0.80;;;;;;;9.52;83.95;101453.44;10402863;28;20044;-93
2023/04/25 17:25:55;;;;;;;5.07;1.00;;;;;;;9.35;85.17;101462.31;10409043;28;20056;-90
2023/04/25 17:30:56;;;;;;;8.52;1.80;;;;;;;8.87;86.16;101465.88;10391618;28;20076;-85
2023/04/25 17:35:56;;;;;;;8.90;1.08;;;;;;;8.18;90.14;101473.25;10388443;28;20056;-93
2023/04/25 17:40:57;;;;;;;10.65;1.83;;;;;;;8.08;93.71;101484.72;10391000;28;20049;-95
2023/04/25 17:45:58;;;;;;;6.75;1.48;;;;;;;7.57;95.96;101499.44;10368303;28;20060;-90
2023/04/25 17:50:59;;;;;;;4.50;1.10;;;;;;;7.17;99.38;101510.53;10382299;28;20107;-91
2023/04/25 17:55:59;;;;;;;10.57;1.20;;;;;;;6.97;100.00;101532.53;10387711;28;20049;-92
2023/04/25 18:01:00;;;;;;;9.85;1.77;;;;;;;6.90;100.00;101539.88;10418857;28;20041;-93
2023/04/25 18:06:01;;;;;;;6.10;1.23;;;;;;;6.86;100.00;101539.47;10365707;28;20044;-92
2023/04/25 18:11:01;;;;;;;9.02;1.60;;;;;;;6.46;100.00;101520.38;10397802;28;20060;-93
2023/04/25 18:16:03;;;;;;;9.80;1.45;;;;;;;6.59;100.00;101566.84;10409510;28;20040;-92
2023/04/25 18:21:06;;;;;;;5.90;1.80;;;;;;;6.37;100.00;101554.47;10413068;28;20452;-92
2023/04/25 18:26:07;;;;;;;14.27;2.30;;;;;;;6.23;100.00;101559.91;10397263;28;20038;-92
2023/04/25 18:31:08;;;;;;;11.75;1.83;;;;;;;5.99;100.00;101544.94;10368424;28;20037;-93
2023/04/25 18:36:08;;;;;;;7.28;1.50;;;;;;;5.81;100.00;101541.94;10373081;28;20049;-93
2023/04/25 18:41:09;;;;;;;9.68;2.38;;;;;;;5.66;100.00;101550.28;10380699;28;20505;-92
2023/04/25 18:46:10;;;;;;;8.63;1.52;;;;;;;5.60;100.00;101571.09;10367084;28;20049;-93
2023/04/25 18:51:10;;;;;;;8.82;1.48;;;;;;;5.44;100.00;101555.91;10394610;28;20037;-93
2023/04/25 18:56:13;;;;;;;11.90;2.72;;;;;;;4.94;100.00;101503.38;10390710;28;20052;-83
2023/04/25 19:01:14;;;;;;;6.07;1.35;;;;;;;5.30;100.00;101584.19;10439847;28;20052;-93
2023/04/25 19:06:14;;;;;;;7.70;1.55;;;;;;;5.21;100.00;101599.88;10404119;28;20045;-92
2023/04/25 19:11:15;;;;;;;13.68;1.90;;;;;;;5.04;100.00;101591.19;10403617;28;20040;-92
2023/04/25 19:16:21;;;;;;;4.13;1.48;;;;;;;4.98;100.00;101597.44;10388225;28;20030;-93
2023/04/25 19:21:21;;;;;;;10.80;1.70;;;;;;;4.88;100.00;101599.69;10422007;28;20109;-93
2023/04/25 19:26:22;;;;;;;11.05;1.73;;;;;;;4.80;100.00;101606.13;10432298;28;20041;-93
2023/04/25 19:31:23;;;;;;;7.43;1.80;;;;;;;4.64;100.00;101582.69;10390290;28;20455;-92
2023/04/25 19:36:24;;;;;;;8.15;1.77;;;;;;;4.61;100.00;101583.09;10429977;28;20029;-91
2023/04/25 19:41:24;;;;;;;6.15;2.13;;;;;;;4.74;100.00;101622.44;10388623;28;20037;-92
2023/04/25 19:46:25;;;;;;;6.93;1.75;;;;;;;4.62;100.00;101612.06;10382231;28;20037;-95
2023/04/25 19:51:26;;;;;;;16.52;2.28;;;;;;;4.31;100.00;101584.31;10402998;28;20045;-91
2023/04/25 19:56:26;;;;;;;5.30;1.77;;;;;;;4.55;100.00;101621.25;10423351;28;20487;-92
2023/04/25 20:01:27;;;;;;;5.78;1.75;;;;;;;4.43;100.00;101615.47;10400136;28;20140;-91
2023/04/25 20:06:28;;;;;;;7.55;2.20;;;;;;;4.61;100.00;101651.28;10405503;28;20030;-85
2023/04/25 20:11:29;;;;;;;6.70;2.55;;;;;;;4.61;100.00;101643.09;10409273;28;20049;-92
2023/04/25 20:16:30;;;;;;;5.05;1.95;;;;;;;4.02;100.00;101583.38;10390511;28;20026;-91
2023/04/25 20:21:33;;;;;;;8.68;2.88;;;;;;;3.93;100.00;101619.97;10385503;28;20049;-89
2023/04/25 20:26:34;;;;;;;13.40;2.60;;;;;;;3.95;100.00;101645.13;10372263;28;20054;-90
2023/04/25 20:31:35;;;;;;;9.27;2.55;;;;;;;3.74;100.00;101638.63;10370892;28;20033;-92
2023/04/25 20:36:36;;;;;;;7.10;3.03;;;;;;;3.68;100.00;101646.69;10384876;28;20044;-92
2023/04/25 20:41:36;;;;;;;7.10;3.33;;;;;;;3.66;100.00;101637.84;10384914;28;20441;-87
2023/04/25 20:46:38;;;;;;;16.25;3.22;;;;;;;3.58;100.00;101636.94;10375002;28;22543;-91
2023/04/25 20:51:39;;;;;;;19.80;3.75;;;;;;;3.38;100.00;101614.03;10392888;28;20045;-90
2023/04/25 20:56:39;;;;;;;9.90;3.10;;;;;;;3.32;100.00;101610.19;10395521;28;20041;-91
2023/04/25 21:01:40;;;;;;;11.57;3.55;;;;;;;3.17;100.00;101602.03;10369138;28;20048;-91
2023/04/25 21:06:40;;;;;;;6.38;2.33;;;;;;;3.35;100.00;101634.31;10381573;28;20046;-91
2023/04/25 21:11:41;;;;;;;20.80;3.00;;;;;;;2.99;100.00;101582.50;10372689;28;20037;-91
2023/04/25 21:16:41;;;;;;;8.70;2.65;;;;;;;3.44;100.00;101646.78;10406047;28;20046;-91
2023/04/25 21:21:42;;;;;;;10.60;2.45;;;;;;;3.52;100.00;101626.81;10346563;28;20045;-92
2023/04/25 21:26:42;;;;;;;6.75;2.60;;;;;;;3.67;100.00;101639.56;10384847;28;20036;-92
2023/04/25 21:31:45;;;;;;;10.43;2.75;;;;;;;3.66;100.00;101611.50;10390122;28;20041;-91
2023/04/25 21:36:45;;;;;;;7.07;2.55;;;;;;;3.75;100.00;101631.28;10363006;28;20107;-91
2023/04/25 21:41:47;;;;;;;11.68;3.08;;;;;;;3.65;100.00;101615.22;10399902;28;20597;-92
2023/04/25 21:46:49;;;;;;;7.93;1.90;;;;;;;3.91;100.00;101658.31;10408708;28;20073;-92
2023/04/25 21:51:50;;;;;;;7.30;2.17;;;;;;;3.91;100.00;101650.13;10397618;28;20045;-90
2023/04/25 21:56:50;;;;;;;16.73;3.15;;;;;;;3.91;100.00;101652.03;10368814;28;20069;-90
2023/04/25 22:01:51;;;;;;;7.88;2.60;;;;;;;3.88;100.00;101652.38;10370798;28;20410;-90
2023/04/25 22:06:52;;;;;;;8.52;1.88;;;;;;;4.06;100.00;101671.88;10384424;28;20144;-91
2023/04/25 22:11:52;;;;;;;15.55;2.53;;;;;;;4.01;100.00;101655.25;10365261;28;20116;-90
2023/04/25 22:16:54;;;;;;;9.25;2.67;;;;;;;3.88;100.00;101658.66;10368553;28;20045;-92
2023/04/25 22:21:55;;;;;;;10.63;3.03;;;;;;;3.72;100.00;101664.31;10414489;28;20080;-91
2023/04/25 22:26:56;;;;;;;10.13;2.90;;;;;;;3.55;100.00;101674.56;10393653;28;20367;-90
2023/04/25 22:31:57;;;;;;;12.80;3.42;;;;;;;3.10;100.00;101613.84;10388963;28;20033;-92
2023/04/25 22:36:58;;;;;;;6.70;2.83;;;;;;;3.40;100.00;101677.31;10402468;28;20078;-91
2023/04/25 22:41:58;;;;;;;10.70;3.42;;;;;;;3.23;100.00;101672.03;10402235;28;20134;-91
2023/04/25 22:47:00;;;;;;;8.32;2.75;;;;;;;3.00;100.00;101650.34;10408105;28;20098;-83
2023/04/25 22:52:02;;;;;;;8.93;2.88;;;;;;;3.08;100.00;101690.22;10409078;28;20064;-91
2023/04/25 22:57:05;;;;;;;7.18;3.42;;;;;;;2.88;100.00;101667.31;10360187;28;20137;-91
2023/04/25 23:02:06;;;;;;;13.65;3.53;;;;;;;2.79;100.00;101691.84;10359306;28;20033;-92
2023/04/25 23:07:07;;;;;;;12.77;3.08;;;;;;;2.68;100.00;101697.69;10375263;28;20029;-91
2023/04/25 23:12:07;;;;;;;7.43;3.97;;;;;;;2.66;100.00;101694.31;10365388;28;20048;-91
2023/04/25 23:17:08;;;;;;;10.30;3.35;;;;;;;2.39;100.00;101672.09;10382727;28;20038;-90
2023/04/25 23:22:09;;;;;;;13.02;3.60;;;;;;;2.38;100.00;101711.19;10339896;28;20045;-91
2023/04/25 23:27:10;;;;;;;13.70;4.75;;;;;;;2.27;100.00;101680.84;10361089;28;20040;-89